createdAt,value
2022-08-03T00:01:23.490Z,22.35
2022-08-03T00:03:51.254Z,22.34
2022-08-03T00:06:17.894Z,22.33
2022-08-03T00:08:44.364Z,22.33
2022-08-03T00:11:10.870Z,22.33
2022-08-03T00:13:37.582Z,22.30
2022-08-03T00:16:04.451Z,22.29
2022-08-03T00:18:31.048Z,22.27
2022-08-03T00:20:58.852Z,22.26
2022-08-03T00:23:25.368Z,22.23
2022-08-03T00:25:51.960Z,22.23
2022-08-03T00:28:18.488Z,22.21
2022-08-03T00:30:45.081Z,22.21
2022-08-03T00:33:11.666Z,22.20
2022-08-03T00:35:50.755Z,22.20
2022-08-03T00:38:19.756Z,22.20
2022-08-03T00:40:46.728Z,22.20
2022-08-03T00:43:13.269Z,22.19
2022-08-03T00:45:41.277Z,22.17
2022-08-03T00:48:23.301Z,22.15
2022-08-03T00:50:56.712Z,22.14
2022-08-03T00:53:25.405Z,22.11
2022-08-03T00:55:52.034Z,22.12
2022-08-03T00:58:18.547Z,22.11
2022-08-03T01:00:44.984Z,22.09
2022-08-03T01:03:11.632Z,22.09
2022-08-03T01:05:53.324Z,22.08
2022-08-03T01:08:35.301Z,22.09
2022-08-03T01:11:10.045Z,22.07
2022-08-03T01:14:04.578Z,22.07
2022-08-03T01:16:36.761Z,22.06
2022-08-03T01:19:28.296Z,22.03
2022-08-03T01:22:04.412Z,22.02
2022-08-03T01:24:42.576Z,22.00
2022-08-03T01:27:14.741Z,21.99
2022-08-03T01:29:52.445Z,21.99
2022-08-03T01:32:59.860Z,21.98
2022-08-03T01:35:12.547Z,21.97
2022-08-03T01:37:43.488Z,21.96
2022-08-03T01:40:12.619Z,21.94
2022-08-03T01:42:40.931Z,21.95
2022-08-03T01:45:10.809Z,21.93
2022-08-03T01:47:38.706Z,21.93
2022-08-03T01:50:07.554Z,21.93
2022-08-03T01:52:35.792Z,21.91
2022-08-03T01:55:03.842Z,21.89
2022-08-03T01:57:30.965Z,21.87
2022-08-03T01:59:59.850Z,21.88
2022-08-03T02:02:33.706Z,21.87
2022-08-03T02:05:01.690Z,21.86
2022-08-03T02:07:30.351Z,21.85
2022-08-03T02:09:59.167Z,21.85
2022-08-03T02:12:27.704Z,21.83
2022-08-03T02:14:56.094Z,21.80
2022-08-03T02:17:39.878Z,21.81
2022-08-03T02:20:11.804Z,21.82
2022-08-03T02:22:40.641Z,21.80
2022-08-03T02:25:08.213Z,21.79
2022-08-03T02:27:39.431Z,21.77
2022-08-03T02:30:12.113Z,21.73
2022-08-03T02:32:41.249Z,21.74
2022-08-03T02:35:14.699Z,21.73
2022-08-03T02:37:45.139Z,21.73
2022-08-03T02:40:18.933Z,21.73
2022-08-03T02:42:47.110Z,21.72
2022-08-03T02:45:16.804Z,21.73
2022-08-03T02:47:53.545Z,21.70
2022-08-03T02:50:24.906Z,21.70
2022-08-03T02:52:52.694Z,21.68
2022-08-03T02:55:21.477Z,21.67
2022-08-03T02:57:49.353Z,21.67
2022-08-03T03:00:27.105Z,21.65
2022-08-03T03:02:57.261Z,21.65
2022-08-03T03:05:56.041Z,21.64
2022-08-03T03:08:17.701Z,21.64
2022-08-03T03:10:45.636Z,21.63
2022-08-03T03:13:13.977Z,21.62
2022-08-03T03:15:41.737Z,21.61
2022-08-03T03:18:09.144Z,21.58
2022-08-03T03:20:38.822Z,21.58
2022-08-03T03:23:05.940Z,21.56
2022-08-03T03:25:33.512Z,21.56
2022-08-03T03:28:01.088Z,21.54
2022-08-03T03:30:29.706Z,21.55
2022-08-03T03:32:57.307Z,21.53
2022-08-03T03:35:24.038Z,21.53
2022-08-03T03:37:52.024Z,21.52
2022-08-03T03:40:18.670Z,21.51
2022-08-03T03:42:45.342Z,21.49
2022-08-03T03:45:12.954Z,21.48
2022-08-03T03:47:39.527Z,21.47
2022-08-03T03:50:06.752Z,21.45
2022-08-03T03:52:33.946Z,21.43
2022-08-03T03:55:01.917Z,21.44
2022-08-03T03:57:28.960Z,21.43
2022-08-03T03:59:55.412Z,21.43
2022-08-03T04:02:21.913Z,21.42
2022-08-03T04:04:48.364Z,21.41
2022-08-03T04:07:14.827Z,21.41
2022-08-03T04:09:42.793Z,21.40
2022-08-03T04:12:10.695Z,21.40
2022-08-03T04:14:39.172Z,21.40
2022-08-03T04:17:09.186Z,21.38
2022-08-03T04:19:38.381Z,21.36
2022-08-03T04:22:07.160Z,21.37
2022-08-03T04:24:39.341Z,21.36
2022-08-03T04:27:09.080Z,21.35
2022-08-03T04:29:48.122Z,21.34
2022-08-03T04:32:16.848Z,21.34
2022-08-03T04:34:43.998Z,21.34
2022-08-03T04:37:12.305Z,21.33
2022-08-03T04:39:41.906Z,21.32
2022-08-03T04:42:12.575Z,21.31
2022-08-03T04:44:44.090Z,21.31
2022-08-03T04:47:10.554Z,21.30
2022-08-03T04:49:37.754Z,21.28
2022-08-03T04:52:05.226Z,21.29
2022-08-03T04:54:39.810Z,21.26
2022-08-03T04:57:06.286Z,21.27
2022-08-03T04:59:32.783Z,21.25
2022-08-03T05:02:00.541Z,21.24
2022-08-03T05:04:27.119Z,21.24
2022-08-03T05:06:55.176Z,21.26
2022-08-03T05:09:33.487Z,21.24
2022-08-03T05:12:09.196Z,21.24
2022-08-03T05:14:36.772Z,21.22
2022-08-03T05:17:04.547Z,21.21
2022-08-03T05:19:31.055Z,21.19
2022-08-03T05:21:57.705Z,21.21
2022-08-03T05:24:24.145Z,21.22
2022-08-03T05:26:50.726Z,21.21
2022-08-03T05:29:17.203Z,21.21
2022-08-03T05:31:43.726Z,21.19
2022-08-03T05:34:11.508Z,21.20
2022-08-03T05:36:37.955Z,21.21
2022-08-03T05:39:04.432Z,21.21
2022-08-03T05:41:36.797Z,21.20
2022-08-03T05:44:04.738Z,21.21
2022-08-03T05:46:31.502Z,21.20
2022-08-03T05:48:58.052Z,21.19
2022-08-03T05:51:25.830Z,21.19
2022-08-03T05:53:52.355Z,21.19
2022-08-03T05:56:22.405Z,21.21
2022-08-03T05:58:48.958Z,21.20
2022-08-03T06:01:16.117Z,21.22
2022-08-03T06:03:42.784Z,21.21
2022-08-03T06:06:09.346Z,21.21
2022-08-03T06:08:37.162Z,21.24
2022-08-03T06:11:03.613Z,21.24
2022-08-03T06:13:30.203Z,21.24
2022-08-03T06:15:56.635Z,21.25
2022-08-03T06:18:23.215Z,21.25
2022-08-03T06:20:50.352Z,21.25
2022-08-03T06:23:19.208Z,21.27
2022-08-03T06:25:47.497Z,21.28
2022-08-03T06:31:01.756Z,21.29
2022-08-03T06:34:30.968Z,21.31
2022-08-03T06:36:14.759Z,21.32
2022-08-03T06:38:41.222Z,21.32
2022-08-03T06:41:09.035Z,21.34
2022-08-03T06:43:35.869Z,21.34
2022-08-03T06:46:02.650Z,21.36
2022-08-03T06:48:29.220Z,21.36
2022-08-03T06:50:55.730Z,21.37
2022-08-03T06:53:22.478Z,21.36
2022-08-03T06:55:53.931Z,21.37
2022-08-03T06:58:22.413Z,21.38
2022-08-03T07:00:49.145Z,21.39
2022-08-03T07:03:15.783Z,21.40
2022-08-03T07:05:42.577Z,21.41
2022-08-03T07:08:09.262Z,21.42
2022-08-03T07:10:35.738Z,21.42
2022-08-03T07:13:02.233Z,21.43
2022-08-03T07:15:55.490Z,21.42
2022-08-03T07:18:16.533Z,21.43
2022-08-03T07:20:43.101Z,21.45
2022-08-03T07:23:09.744Z,21.45
2022-08-03T07:25:38.440Z,21.47
2022-08-03T07:28:04.997Z,21.47
2022-08-03T07:30:32.744Z,21.49
2022-08-03T07:32:59.219Z,21.50
2022-08-03T07:35:25.835Z,21.51
2022-08-03T07:37:54.900Z,21.52
2022-08-03T07:40:22.309Z,21.52
2022-08-03T07:42:53.221Z,21.53
2022-08-03T07:45:20.084Z,21.55
2022-08-03T07:47:53.619Z,21.57
2022-08-03T07:50:21.215Z,21.57
2022-08-03T07:52:47.909Z,21.57
2022-08-03T07:55:14.549Z,21.58
2022-08-03T07:57:40.984Z,21.59
2022-08-03T08:00:13.538Z,21.61
2022-08-03T08:02:40.016Z,21.61
2022-08-03T08:05:08.589Z,21.63
2022-08-03T08:07:35.161Z,21.63
2022-08-03T08:10:01.640Z,21.64
2022-08-03T08:12:28.320Z,21.66
2022-08-03T08:14:54.779Z,21.67
2022-08-03T08:17:21.268Z,21.68
2022-08-03T08:19:51.314Z,21.69
2022-08-03T08:22:29.718Z,21.70
2022-08-03T08:24:57.593Z,21.71
2022-08-03T08:27:24.057Z,21.72
2022-08-03T08:29:54.313Z,21.72
2022-08-03T08:32:24.080Z,21.75
2022-08-03T08:34:50.553Z,21.76
2022-08-03T08:37:16.992Z,21.75
2022-08-03T08:39:44.900Z,21.77
2022-08-03T08:42:11.498Z,21.77
2022-08-03T08:44:37.950Z,21.76
2022-08-03T08:47:04.567Z,21.78
2022-08-03T08:49:35.178Z,21.78
2022-08-03T08:52:29.553Z,21.82
2022-08-03T08:54:56.595Z,21.85
2022-08-03T08:57:42.235Z,21.85
2022-08-03T09:00:11.733Z,21.86
2022-08-03T09:02:38.174Z,21.88
2022-08-03T09:05:07.533Z,21.88
2022-08-03T09:07:34.804Z,21.88
2022-08-03T09:10:11.294Z,21.91
2022-08-03T09:12:42.925Z,21.92
2022-08-03T09:15:18.521Z,21.93
2022-08-03T09:17:50.371Z,21.93
2022-08-03T09:20:18.568Z,21.94
2022-08-03T09:22:54.561Z,21.95
2022-08-03T09:25:29.900Z,21.96
2022-08-03T09:28:05.974Z,21.97
2022-08-03T09:30:34.641Z,21.96
2022-08-03T09:33:02.749Z,22.00
2022-08-03T09:35:53.713Z,22.01
2022-08-03T09:38:18.056Z,22.02
2022-08-03T09:40:46.599Z,22.04
2022-08-03T09:43:13.651Z,22.04
2022-08-03T09:45:40.739Z,22.07
2022-08-03T09:48:21.006Z,22.06
2022-08-03T09:50:58.449Z,22.07
2022-08-03T09:53:26.478Z,22.07
2022-08-03T09:56:33.318Z,22.08
2022-08-03T09:58:46.168Z,22.11
2022-08-03T10:01:24.093Z,22.11
2022-08-03T10:04:04.463Z,22.14
2022-08-03T10:06:31.703Z,22.14
2022-08-03T10:09:07.774Z,22.15
2022-08-03T10:11:41.280Z,22.16
2022-08-03T10:14:09.887Z,22.17
2022-08-03T10:16:37.776Z,22.18
2022-08-03T10:19:05.589Z,22.22
2022-08-03T10:21:34.984Z,22.23
2022-08-03T10:24:04.441Z,22.24
2022-08-03T10:26:33.068Z,22.25
2022-08-03T10:29:04.130Z,22.24
2022-08-03T10:31:54.397Z,22.25
2022-08-03T10:34:26.376Z,22.25
2022-08-03T10:36:58.570Z,22.25
2022-08-03T10:39:29.344Z,22.27
2022-08-03T10:41:57.832Z,22.27
2022-08-03T10:44:32.414Z,22.28
2022-08-03T10:46:59.388Z,22.29
2022-08-03T10:49:33.965Z,22.30
2022-08-03T10:52:02.632Z,22.33
2022-08-03T10:54:42.600Z,22.34
2022-08-03T10:57:58.436Z,22.34
2022-08-03T11:00:27.849Z,22.35
2022-08-03T11:03:04.325Z,22.36
2022-08-03T11:05:32.836Z,22.37
2022-08-03T11:08:18.180Z,22.38
2022-08-03T11:10:44.930Z,22.39
2022-08-03T11:13:14.908Z,22.38
2022-08-03T11:15:47.052Z,22.36
2022-08-03T11:18:14.706Z,22.35
2022-08-03T11:20:47.638Z,22.37
2022-08-03T11:23:15.287Z,22.38
2022-08-03T11:26:09.999Z,22.39
2022-08-03T11:28:37.580Z,22.42
2022-08-03T11:31:49.177Z,22.45
2022-08-03T11:34:17.422Z,22.43
2022-08-03T11:37:09.994Z,22.44
2022-08-03T11:39:40.337Z,22.45
2022-08-03T11:42:36.464Z,22.45
2022-08-03T11:45:08.430Z,22.46
2022-08-03T11:47:51.008Z,22.50
2022-08-03T11:50:19.452Z,22.51
2022-08-03T11:52:45.952Z,22.50
2022-08-03T11:55:15.134Z,22.48
2022-08-03T11:59:01.901Z,22.49
2022-08-03T12:00:30.547Z,22.48
2022-08-03T12:03:00.390Z,22.49
2022-08-03T12:05:39.669Z,22.49
2022-08-03T12:08:07.672Z,22.50
2022-08-03T12:10:35.311Z,22.52
2022-08-03T12:13:03.914Z,22.55
2022-08-03T12:15:32.238Z,22.57
2022-08-03T12:17:58.770Z,22.59
2022-08-03T12:20:34.689Z,22.57
2022-08-03T12:23:04.872Z,22.55
2022-08-03T12:25:39.223Z,22.54
2022-08-03T12:28:36.278Z,22.53
2022-08-03T12:31:00.328Z,22.53
2022-08-03T12:33:27.976Z,22.56
2022-08-03T12:36:10.261Z,22.59
2022-08-03T12:38:39.710Z,22.57
2022-08-03T12:41:08.101Z,22.61
2022-08-03T12:43:37.633Z,22.66
2022-08-03T12:46:10.874Z,22.67
2022-08-03T12:48:54.318Z,22.66
2022-08-03T12:51:20.907Z,22.66
2022-08-03T12:53:53.586Z,22.71
2022-08-03T12:56:20.149Z,22.72
2022-08-03T12:58:46.891Z,22.72
2022-08-03T13:01:14.011Z,22.70
2022-08-03T13:03:43.396Z,22.71
2022-08-03T13:06:12.934Z,22.74
2022-08-03T13:08:39.795Z,22.75
2022-08-03T13:11:23.299Z,22.77
2022-08-03T13:14:09.700Z,22.78
2022-08-03T13:16:43.221Z,22.76
2022-08-03T13:19:09.945Z,22.76
2022-08-03T13:21:53.424Z,22.81
2022-08-03T13:24:29.712Z,22.82
2022-08-03T13:26:58.308Z,22.84
2022-08-03T13:29:24.764Z,22.87
2022-08-03T13:31:51.587Z,22.89
2022-08-03T13:34:22.516Z,22.91
2022-08-03T13:39:57.973Z,22.90
2022-08-03T13:42:24.281Z,22.91
2022-08-03T13:44:50.844Z,22.88
2022-08-03T13:47:17.673Z,22.87
2022-08-03T13:49:59.554Z,22.86
2022-08-03T13:52:29.288Z,22.84
2022-08-03T13:54:55.789Z,22.82
2022-08-03T13:58:03.181Z,22.83
2022-08-03T14:00:10.980Z,22.84
2022-08-03T14:02:38.437Z,22.86
2022-08-03T14:05:05.609Z,22.85
2022-08-03T14:07:32.089Z,22.86
2022-08-03T14:09:58.597Z,22.86
2022-08-03T14:12:26.377Z,22.84
2022-08-03T14:14:52.928Z,22.88
2022-08-03T14:17:20.123Z,22.90
2022-08-03T14:19:53.229Z,22.89
2022-08-03T14:22:21.258Z,22.89
2022-08-03T14:24:48.024Z,22.86
2022-08-03T14:27:15.993Z,22.83
2022-08-03T14:29:43.809Z,22.84
2022-08-03T14:32:13.226Z,22.85
2022-08-03T14:34:40.096Z,22.87
2022-08-03T14:37:06.694Z,22.86
2022-08-03T14:42:19.635Z,22.84
2022-08-03T14:44:47.486Z,22.86
2022-08-03T14:47:14.328Z,22.86
2022-08-03T14:50:37.186Z,22.85
2022-08-03T14:52:27.732Z,22.87
2022-08-03T14:54:54.191Z,22.92
2022-08-03T14:57:20.899Z,22.93
2022-08-03T14:59:55.581Z,22.91
2022-08-03T15:02:24.457Z,22.91
2022-08-03T15:04:51.153Z,22.89
2022-08-03T15:07:17.942Z,22.93
2022-08-03T15:09:44.583Z,22.98
2022-08-03T15:12:11.042Z,23.01
2022-08-03T15:14:37.882Z,23.03
2022-08-03T15:17:06.034Z,23.06
2022-08-03T15:20:01.596Z,23.06
2022-08-03T15:22:20.781Z,23.01
2022-08-03T15:24:52.299Z,23.01
2022-08-03T15:27:19.176Z,23.03
2022-08-03T15:30:07.688Z,23.05
2022-08-03T15:32:33.817Z,23.10
2022-08-03T15:35:00.455Z,23.14
2022-08-03T15:37:27.790Z,23.16
2022-08-03T15:39:59.486Z,23.16
2022-08-03T15:42:28.366Z,23.18
2022-08-03T15:44:54.897Z,23.20
2022-08-03T15:47:22.915Z,23.23
2022-08-03T15:49:50.850Z,23.25
2022-08-03T15:52:17.363Z,23.26
2022-08-03T15:54:43.926Z,23.27
2022-08-03T15:57:10.399Z,23.27
2022-08-03T15:59:36.886Z,23.27
2022-08-03T16:02:03.986Z,23.27
2022-08-03T16:04:30.606Z,23.28
2022-08-03T16:06:58.376Z,23.31
2022-08-03T16:09:42.476Z,23.32
2022-08-03T16:12:14.404Z,23.34
2022-08-03T16:14:51.762Z,23.37
2022-08-03T16:17:19.900Z,23.39
2022-08-03T16:19:46.662Z,23.39
2022-08-03T16:22:14.712Z,23.42
2022-08-03T16:24:41.203Z,23.42
2022-08-03T16:27:17.484Z,23.42
2022-08-03T16:29:54.507Z,23.40
2022-08-03T16:32:21.000Z,23.41
2022-08-03T16:34:47.476Z,23.41
2022-08-03T16:37:37.479Z,23.41
2022-08-03T16:40:01.889Z,23.44
2022-08-03T16:42:28.342Z,23.46
2022-08-03T16:44:55.056Z,23.49
2022-08-03T16:47:22.207Z,23.49
2022-08-03T16:49:54.065Z,23.51
2022-08-03T16:52:26.119Z,23.52
2022-08-03T16:54:53.911Z,23.52
2022-08-03T16:57:55.737Z,23.52
2022-08-03T17:00:09.451Z,23.52
2022-08-03T17:02:36.154Z,23.51
2022-08-03T17:05:03.183Z,23.52
2022-08-03T17:07:31.472Z,23.53
2022-08-03T17:09:58.313Z,23.51
2022-08-03T17:12:26.840Z,23.47
2022-08-03T17:14:54.146Z,23.49
2022-08-03T17:17:27.460Z,23.48
2022-08-03T17:19:56.141Z,23.46
2022-08-03T17:22:31.492Z,23.49
2022-08-03T17:25:07.424Z,23.51
2022-08-03T17:28:48.254Z,23.53
2022-08-03T17:30:22.424Z,23.54
2022-08-03T17:32:56.717Z,23.55
2022-08-03T17:35:24.777Z,23.55
2022-08-03T17:38:03.712Z,23.56
2022-08-03T17:40:32.463Z,23.57
2022-08-03T17:43:01.951Z,23.56
2022-08-03T17:45:52.807Z,23.56
2022-08-03T17:48:21.546Z,23.56
2022-08-03T17:50:55.367Z,23.57
2022-08-03T17:53:27.580Z,23.55
2022-08-03T17:56:44.595Z,23.54
2022-08-03T17:59:09.498Z,23.54
2022-08-03T18:02:00.753Z,23.54
2022-08-03T18:04:33.506Z,23.52
2022-08-03T18:07:11.131Z,23.50
2022-08-03T18:10:03.838Z,23.51
2022-08-03T18:12:29.034Z,23.50
2022-08-03T18:15:01.239Z,23.49
2022-08-03T18:17:55.552Z,23.47
2022-08-03T18:20:32.890Z,23.46
2022-08-03T18:23:08.756Z,23.45
2022-08-03T18:25:43.041Z,23.44
2022-08-03T18:28:15.515Z,23.43
2022-08-03T18:30:54.050Z,23.42
2022-08-03T18:34:18.322Z,23.41
2022-08-03T18:36:09.764Z,23.43
2022-08-03T18:38:39.167Z,23.41
2022-08-03T18:41:14.563Z,23.42
2022-08-03T18:43:47.249Z,23.42
2022-08-03T18:46:42.019Z,23.42
2022-08-03T18:49:11.792Z,23.42
2022-08-03T18:51:43.187Z,23.41
2022-08-03T18:54:46.110Z,23.40
2022-08-03T18:57:10.065Z,23.40
2022-08-03T18:59:46.293Z,23.41
2022-08-03T19:02:28.966Z,23.40
2022-08-03T19:05:03.339Z,23.40
2022-08-03T19:07:35.943Z,23.40
2022-08-03T19:10:06.058Z,23.40
2022-08-03T19:12:39.870Z,23.39
2022-08-03T19:15:10.366Z,23.40
2022-08-03T19:17:43.326Z,23.38
2022-08-03T19:20:20.172Z,23.38
2022-08-03T19:22:47.319Z,23.37
2022-08-03T19:25:13.893Z,23.37
2022-08-03T19:27:43.830Z,23.34
2022-08-03T19:30:20.105Z,23.34
2022-08-03T19:32:54.264Z,23.33
2022-08-03T19:35:51.186Z,23.31
2022-08-03T19:38:09.157Z,23.30
2022-08-03T19:40:42.004Z,23.29
2022-08-03T19:43:11.450Z,23.28
2022-08-03T19:46:06.323Z,23.28
2022-08-03T19:48:34.712Z,23.27
2022-08-03T19:51:02.963Z,23.26
2022-08-03T19:53:44.949Z,23.24
2022-08-03T19:56:12.903Z,23.23
2022-08-03T19:58:42.615Z,23.22
2022-08-03T20:01:19.489Z,23.21
2022-08-03T20:03:49.189Z,23.20
2022-08-03T20:06:16.931Z,23.20
2022-08-03T20:08:44.497Z,23.18
2022-08-03T20:11:11.114Z,23.18
2022-08-03T20:13:39.139Z,23.16
2022-08-03T20:16:06.179Z,23.16
2022-08-03T20:18:39.413Z,23.15
2022-08-03T20:21:15.350Z,23.14
2022-08-03T20:24:03.212Z,23.13
2022-08-03T20:26:30.567Z,23.13
2022-08-03T20:29:01.207Z,23.10
2022-08-03T20:31:36.368Z,23.10
2022-08-03T20:34:05.388Z,23.08
2022-08-03T20:36:31.973Z,23.07
2022-08-03T20:38:58.907Z,23.06
2022-08-03T20:41:26.250Z,23.06
2022-08-03T20:43:52.791Z,23.04
2022-08-03T20:46:33.861Z,23.02
2022-08-03T20:49:07.639Z,23.03
2022-08-03T20:54:30.533Z,23.01
2022-08-03T20:56:58.478Z,22.99
2022-08-03T20:59:25.069Z,22.99
2022-08-03T21:01:51.542Z,22.97
2022-08-03T21:04:22.492Z,22.96
2022-08-03T21:06:54.093Z,22.96
2022-08-03T21:09:39.725Z,22.94
2022-08-03T21:12:15.412Z,22.92
2022-08-03T21:13:07.586Z,23.01
2022-08-03T21:14:52.459Z,22.90
2022-08-03T21:17:38.367Z,22.89
2022-08-03T21:20:09.352Z,22.89
2022-08-03T21:22:37.755Z,22.90
2022-08-03T21:25:07.632Z,22.88
2022-08-03T21:27:34.839Z,22.87
2022-08-03T21:30:04.199Z,22.84
2022-08-03T21:32:32.615Z,22.85
2022-08-03T21:35:00.571Z,22.85
2022-08-03T21:37:28.818Z,22.82
2022-08-03T21:39:56.470Z,22.83
2022-08-03T21:42:23.287Z,22.83
2022-08-03T21:44:50.610Z,22.81
2022-08-03T21:47:18.608Z,22.78
2022-08-03T21:50:05.660Z,22.80
2022-08-03T21:52:41.837Z,22.78
2022-08-03T21:55:09.325Z,22.78
2022-08-03T21:57:51.007Z,22.77
2022-08-03T22:00:19.739Z,22.75
2022-08-03T22:02:54.448Z,22.74
2022-08-03T22:05:28.111Z,22.75
2022-08-03T22:07:57.323Z,22.74
2022-08-03T22:10:23.862Z,22.72
2022-08-03T22:12:50.335Z,22.72
2022-08-03T22:15:16.797Z,22.72
2022-08-03T22:17:54.956Z,22.71
2022-08-03T22:20:24.011Z,22.69
2022-08-03T22:22:55.797Z,22.70
2022-08-03T22:25:28.257Z,22.68
2022-08-03T22:27:54.970Z,22.67
2022-08-03T22:30:21.666Z,22.66
2022-08-03T22:32:52.602Z,22.66
2022-08-03T22:35:20.708Z,22.65
2022-08-03T22:37:49.234Z,22.63
2022-08-03T22:40:16.844Z,22.62
2022-08-03T22:42:45.940Z,22.62
2022-08-03T22:45:12.573Z,22.61
2022-08-03T22:47:59.882Z,22.61
2022-08-03T22:50:32.002Z,22.60
2022-08-03T22:53:00.077Z,22.59
2022-08-03T22:55:27.303Z,22.58
2022-08-03T22:57:55.577Z,22.58
2022-08-03T23:00:24.126Z,22.57
2022-08-03T23:02:51.879Z,22.56
2022-08-03T23:06:02.319Z,22.55
2022-08-03T23:08:09.769Z,22.54
2022-08-03T23:10:38.491Z,22.53
2022-08-03T23:13:07.120Z,22.52
2022-08-03T23:15:34.191Z,22.49
2022-08-03T23:18:00.697Z,22.49
2022-08-03T23:20:28.896Z,22.48
2022-08-03T23:22:55.987Z,22.48
2022-08-03T23:25:22.981Z,22.48
2022-08-03T23:28:05.511Z,22.48
2022-08-03T23:30:36.938Z,22.45
2022-08-03T23:33:04.237Z,22.45
2022-08-03T23:36:20.133Z,22.42
2022-08-03T23:38:22.924Z,22.42
2022-08-03T23:40:51.462Z,22.41
2022-08-03T23:43:50.831Z,22.41
2022-08-03T23:46:08.795Z,22.37
2022-08-03T23:48:35.586Z,22.36
2022-08-03T23:51:09.534Z,22.34
2022-08-03T23:53:42.115Z,22.33
2022-08-03T23:56:16.897Z,22.31
2022-08-03T23:58:59.271Z,22.30
